createdAt,value
2019-02-17T00:01:45.339Z,-2.64
2019-02-17T00:04:13.968Z,-2.78
2019-02-17T00:06:42.639Z,-2.77
2019-02-17T00:09:12.133Z,-2.71
2019-02-17T00:11:40.784Z,-2.76
2019-02-17T00:14:09.460Z,-2.78
2019-02-17T00:16:38.089Z,-2.80
2019-02-17T00:19:06.776Z,-2.81
2019-02-17T00:21:35.419Z,-2.87
2019-02-17T00:24:04.094Z,-2.83
2019-02-17T00:26:33.106Z,-2.85
2019-02-17T00:29:01.783Z,-2.98
2019-02-17T00:31:30.403Z,-2.93
2019-02-17T00:33:59.094Z,-2.97
2019-02-17T00:36:27.717Z,-3.02
2019-02-17T00:38:56.388Z,-3.14
2019-02-17T00:41:25.086Z,-3.29
2019-02-17T00:43:53.693Z,-3.28
2019-02-17T00:46:22.382Z,-3.31
2019-02-17T00:48:50.999Z,-3.37
2019-02-17T00:51:19.694Z,-3.40
2019-02-17T00:53:48.354Z,-3.28
2019-02-17T00:56:16.992Z,-3.15
2019-02-17T00:58:45.607Z,-3.61
2019-02-17T01:01:16.954Z,-3.54
2019-02-17T01:03:45.593Z,-3.56
2019-02-17T01:06:14.209Z,-3.58
2019-02-17T01:08:42.889Z,-3.36
2019-02-17T01:11:11.574Z,-3.37
2019-02-17T01:13:40.203Z,-3.37
2019-02-17T01:16:08.816Z,-3.41
2019-02-17T01:18:37.500Z,-3.42
2019-02-17T01:21:06.106Z,-3.39
2019-02-17T01:23:34.844Z,-3.27
2019-02-17T01:26:03.511Z,-3.50
2019-02-17T01:28:32.172Z,-3.55
2019-02-17T01:31:03.661Z,-3.52
2019-02-17T01:33:32.333Z,-3.48
2019-02-17T01:36:00.945Z,-3.45
2019-02-17T01:38:29.637Z,-3.53
2019-02-17T01:40:58.248Z,-3.42
2019-02-17T01:43:26.865Z,-3.48
2019-02-17T01:45:55.536Z,-3.78
2019-02-17T01:48:24.205Z,-3.68
2019-02-17T01:50:52.817Z,-3.70
2019-02-17T01:53:21.498Z,-3.79
2019-02-17T01:55:50.112Z,-3.99
2019-02-17T01:58:18.809Z,-3.93
2019-02-17T02:00:47.419Z,-3.95
2019-02-17T02:03:16.100Z,-4.02
2019-02-17T02:05:44.724Z,-4.00
2019-02-17T02:08:13.377Z,-4.03
2019-02-17T02:10:42.108Z,-4.13
2019-02-17T02:13:10.713Z,-4.22
2019-02-17T02:15:39.387Z,-4.19
2019-02-17T02:18:08.075Z,-4.33
2019-02-17T02:20:36.669Z,-4.34
2019-02-17T02:23:05.349Z,-4.27
2019-02-17T02:25:33.974Z,-4.55
2019-02-17T02:28:02.657Z,-4.40
2019-02-17T02:30:31.277Z,-4.16
2019-02-17T02:32:59.952Z,-4.32
2019-02-17T02:35:28.630Z,-4.33
2019-02-17T02:37:57.239Z,-4.20
2019-02-17T02:40:25.904Z,-4.14
2019-02-17T02:42:54.511Z,-4.18
2019-02-17T02:45:23.201Z,-4.18
2019-02-17T02:47:51.911Z,-4.17
2019-02-17T02:50:20.568Z,-4.33
2019-02-17T02:52:49.247Z,-4.23
2019-02-17T02:55:17.859Z,-4.30
2019-02-17T02:57:46.518Z,-4.56
2019-02-17T03:00:15.527Z,-4.45
2019-02-17T03:02:44.208Z,-4.37
2019-02-17T03:05:12.832Z,-4.38
2019-02-17T03:07:41.504Z,-4.41
2019-02-17T03:10:10.607Z,-4.44
2019-02-17T03:12:39.297Z,-4.50
2019-02-17T03:15:09.227Z,-4.58
2019-02-17T03:17:37.842Z,-4.55
2019-02-17T03:20:08.885Z,-4.57
2019-02-17T03:22:37.546Z,-4.51
2019-02-17T03:25:07.187Z,-4.49
2019-02-17T03:27:35.885Z,-4.57
2019-02-17T03:30:06.471Z,-4.58
2019-02-17T03:32:35.094Z,-4.64
2019-02-17T03:35:03.803Z,-4.71
2019-02-17T03:37:32.418Z,-4.55
2019-02-17T03:40:01.081Z,-4.65
2019-02-17T03:42:29.763Z,-4.72
2019-02-17T03:44:58.369Z,-4.81
2019-02-17T03:47:27.047Z,-4.88
2019-02-17T03:49:55.664Z,-4.75
2019-02-17T03:52:24.359Z,-4.74
2019-02-17T03:54:53.050Z,-4.78
2019-02-17T03:57:21.674Z,-4.85
2019-02-17T03:59:50.339Z,-4.92
2019-02-17T04:02:18.964Z,-4.89
2019-02-17T04:04:47.634Z,-5.24
2019-02-17T04:07:16.259Z,-5.26
2019-02-17T04:09:44.944Z,-5.21
2019-02-17T04:12:13.550Z,-5.64
2019-02-17T04:14:42.245Z,-5.78
2019-02-17T04:17:10.867Z,-5.63
2019-02-17T04:19:39.557Z,-5.58
2019-02-17T04:22:08.270Z,-5.50
2019-02-17T04:24:37.013Z,-5.44
2019-02-17T04:27:05.658Z,-5.41
2019-02-17T04:29:34.347Z,-5.68
2019-02-17T04:32:02.968Z,-5.55
2019-02-17T04:34:31.669Z,-5.42
2019-02-17T04:37:00.350Z,-5.46
2019-02-17T04:39:28.948Z,-5.49
2019-02-17T04:41:57.595Z,-5.49
2019-02-17T04:44:26.276Z,-5.51
2019-02-17T04:46:54.962Z,-5.62
2019-02-17T04:49:23.654Z,-5.66
2019-02-17T04:51:52.297Z,-5.51
2019-02-17T04:54:20.961Z,-6.04
2019-02-17T04:56:49.582Z,-5.83
2019-02-17T04:59:18.253Z,-5.83
2019-02-17T05:01:46.887Z,-5.93
2019-02-17T05:04:15.587Z,-6.02
2019-02-17T05:06:44.221Z,-6.34
2019-02-17T05:09:12.895Z,-6.01
2019-02-17T05:11:41.501Z,-6.23
2019-02-17T05:14:10.193Z,-6.14
2019-02-17T05:16:38.881Z,-6.04
2019-02-17T05:19:07.557Z,-5.85
2019-02-17T05:21:36.197Z,-5.84
2019-02-17T05:24:04.891Z,-6.25
2019-02-17T05:26:33.521Z,-6.70
2019-02-17T05:29:02.208Z,-6.74
2019-02-17T05:31:30.843Z,-6.42
2019-02-17T05:33:59.504Z,-6.22
2019-02-17T05:36:28.117Z,-6.00
2019-02-17T05:38:56.801Z,-5.89
2019-02-17T05:41:25.429Z,-5.75
2019-02-17T05:43:54.102Z,-5.73
2019-02-17T05:46:22.713Z,-5.80
2019-02-17T05:48:51.446Z,-5.65
2019-02-17T05:51:20.077Z,-5.57
2019-02-17T05:53:48.876Z,-5.50
2019-02-17T05:56:17.543Z,-5.53
2019-02-17T05:58:46.351Z,-5.96
2019-02-17T06:01:15.003Z,-6.36
2019-02-17T06:03:43.714Z,-6.68
2019-02-17T06:06:14.863Z,-6.61
2019-02-17T06:08:44.631Z,-6.53
2019-02-17T06:11:13.693Z,-6.79
2019-02-17T06:13:42.330Z,-6.40
2019-02-17T06:16:11.012Z,-6.36
2019-02-17T06:18:39.714Z,-6.32
2019-02-17T06:21:08.458Z,-6.10
2019-02-17T06:23:37.114Z,-6.07
2019-02-17T06:26:05.786Z,-5.96
2019-02-17T06:28:34.465Z,-5.89
2019-02-17T06:31:13.735Z,-5.78
2019-02-17T06:33:33.554Z,-5.69
2019-02-17T06:36:02.167Z,-5.52
2019-02-17T06:38:30.869Z,-5.62
2019-02-17T06:40:59.594Z,-5.89
2019-02-17T06:43:28.247Z,-5.83
2019-02-17T06:45:56.943Z,-5.54
2019-02-17T06:48:25.629Z,-5.66
2019-02-17T06:50:54.405Z,-5.87
2019-02-17T06:53:23.089Z,-6.05
2019-02-17T06:55:53.286Z,-6.21
2019-02-17T06:58:21.962Z,-6.31
2019-02-17T07:00:50.590Z,-6.31
2019-02-17T07:03:19.313Z,-6.28
2019-02-17T07:05:52.238Z,-6.09
2019-02-17T07:08:20.904Z,-6.64
2019-02-17T07:10:49.705Z,-6.57
2019-02-17T07:13:18.500Z,-6.21
2019-02-17T07:15:47.126Z,-5.70
2019-02-17T07:18:15.833Z,-5.88
2019-02-17T07:20:44.469Z,-5.66
2019-02-17T07:23:15.208Z,-5.22
2019-02-17T07:25:43.659Z,-5.12
2019-02-17T07:28:12.298Z,-4.78
2019-02-17T07:30:41.025Z,-4.54
2019-02-17T07:33:09.726Z,-4.34
2019-02-17T07:35:38.370Z,-4.28
2019-02-17T07:38:07.115Z,-4.07
2019-02-17T07:40:35.865Z,-4.19
2019-02-17T07:43:04.473Z,-4.25
2019-02-17T07:45:33.207Z,-4.42
2019-02-17T07:48:01.873Z,-4.42
2019-02-17T07:50:30.574Z,-3.86
2019-02-17T07:53:00.667Z,-3.88
2019-02-17T07:55:29.229Z,-3.80
2019-02-17T07:57:57.921Z,-3.33
2019-02-17T08:00:26.728Z,-2.76
2019-02-17T08:02:55.467Z,-1.96
2019-02-17T08:05:24.100Z,-1.70
2019-02-17T08:07:52.794Z,-1.19
2019-02-17T08:10:21.423Z,-1.40
2019-02-17T08:12:52.182Z,-2.05
2019-02-17T08:15:20.591Z,-2.84
2019-02-17T08:17:49.724Z,-2.73
2019-02-17T08:20:18.454Z,-2.49
2019-02-17T08:22:47.373Z,-2.11
2019-02-17T08:25:21.876Z,-2.15
2019-02-17T08:27:47.179Z,-1.57
2019-02-17T08:30:16.491Z,-1.13
2019-02-17T08:32:45.132Z,-1.18
2019-02-17T08:35:14.063Z,-2.00
2019-02-17T08:37:42.741Z,-1.22
2019-02-17T08:40:11.675Z,-1.52
2019-02-17T08:42:41.879Z,-0.31
2019-02-17T08:45:10.832Z,0.43
2019-02-17T08:47:39.516Z,0.65
2019-02-17T08:50:10.856Z,0.10
2019-02-17T08:52:39.516Z,0.55
2019-02-17T08:55:10.049Z,0.04
2019-02-17T08:57:38.790Z,0.23
2019-02-17T09:00:14.286Z,0.22
2019-02-17T09:02:44.571Z,0.85
2019-02-17T09:05:13.233Z,0.84
2019-02-17T09:07:41.939Z,0.91
2019-02-17T09:10:12.567Z,1.23
2019-02-17T09:12:41.186Z,0.87
2019-02-17T09:15:11.986Z,1.28
2019-02-17T09:17:41.192Z,1.46
2019-02-17T09:20:13.031Z,1.76
2019-02-17T09:22:41.746Z,1.90
2019-02-17T09:25:11.672Z,2.26
2019-02-17T09:27:40.397Z,0.99
2019-02-17T09:30:12.088Z,1.23
2019-02-17T09:32:40.716Z,2.06
2019-02-17T09:35:09.403Z,2.24
2019-02-17T09:37:38.040Z,2.41
2019-02-17T09:40:09.364Z,2.73
2019-02-17T09:42:38.080Z,3.16
2019-02-17T09:45:09.944Z,3.25
2019-02-17T09:47:38.674Z,4.05
2019-02-17T09:50:12.638Z,3.60
2019-02-17T09:52:41.302Z,4.49
2019-02-17T09:55:11.118Z,3.22
2019-02-17T09:57:39.855Z,3.65
2019-02-17T10:00:11.347Z,3.47
2019-02-17T10:02:40.024Z,3.05
2019-02-17T10:05:10.359Z,4.04
2019-02-17T10:07:39.036Z,4.37
2019-02-17T10:10:18.741Z,4.47
2019-02-17T10:12:47.707Z,4.98
2019-02-17T10:15:16.401Z,4.86
2019-02-17T10:17:45.024Z,4.55
2019-02-17T10:20:15.215Z,4.91
2019-02-17T10:22:43.827Z,6.32
2019-02-17T10:25:12.799Z,6.00
2019-02-17T10:27:41.472Z,5.52
2019-02-17T10:30:17.603Z,5.85
2019-02-17T10:32:46.359Z,6.90
2019-02-17T10:35:15.120Z,6.07
2019-02-17T10:37:43.753Z,5.77
2019-02-17T10:40:15.034Z,5.68
2019-02-17T10:42:43.646Z,5.99
2019-02-17T10:45:12.639Z,6.03
2019-02-17T10:47:41.322Z,6.06
2019-02-17T10:50:13.116Z,6.46
2019-02-17T10:52:41.730Z,7.70
2019-02-17T10:55:12.235Z,7.21
2019-02-17T10:57:40.932Z,7.11
2019-02-17T11:00:21.305Z,7.77
2019-02-17T11:02:49.923Z,8.45
2019-02-17T11:05:18.543Z,7.44
2019-02-17T11:07:47.237Z,6.45
2019-02-17T11:10:15.932Z,7.28
2019-02-17T11:12:44.641Z,8.61
2019-02-17T11:15:17.903Z,7.71
2019-02-17T11:17:46.589Z,7.21
2019-02-17T11:20:15.281Z,6.86
2019-02-17T11:22:45.374Z,7.08
2019-02-17T11:25:14.159Z,7.39
2019-02-17T11:27:42.830Z,6.94
2019-02-17T11:30:23.070Z,7.30
2019-02-17T11:32:58.020Z,7.22
2019-02-17T11:35:23.830Z,7.47
2019-02-17T11:37:54.532Z,7.93
2019-02-17T11:40:22.974Z,8.25
2019-02-17T11:42:53.063Z,8.29
2019-02-17T11:45:21.720Z,7.68
2019-02-17T11:47:50.401Z,9.40
2019-02-17T11:50:21.110Z,9.20
2019-02-17T11:52:51.054Z,10.19
2019-02-17T11:55:19.748Z,9.36
2019-02-17T11:57:48.515Z,9.21
2019-02-17T12:00:23.807Z,9.50
2019-02-17T12:02:52.384Z,10.00
2019-02-17T12:05:21.107Z,9.87
2019-02-17T12:07:51.249Z,10.74
2019-02-17T12:10:19.937Z,10.29
2019-02-17T12:12:49.006Z,10.67
2019-02-17T12:15:17.700Z,11.03
2019-02-17T12:17:46.343Z,9.97
2019-02-17T12:20:39.518Z,9.65
2019-02-17T12:23:15.920Z,9.58
2019-02-17T12:25:46.263Z,9.63
2019-02-17T12:28:19.460Z,10.78
2019-02-17T12:30:49.747Z,10.70
2019-02-17T12:33:21.501Z,9.10
2019-02-17T12:35:57.329Z,9.61
2019-02-17T12:38:25.992Z,10.66
2019-02-17T12:40:54.685Z,10.29
2019-02-17T12:43:24.886Z,10.59
2019-02-17T12:45:55.153Z,9.74
2019-02-17T12:48:24.736Z,9.54
2019-02-17T12:50:53.478Z,10.06
2019-02-17T12:53:22.192Z,10.41
2019-02-17T12:55:52.499Z,10.81
2019-02-17T12:58:29.573Z,10.60
2019-02-17T13:00:51.631Z,11.04
2019-02-17T13:03:28.334Z,10.66
2019-02-17T13:05:50.806Z,9.87
2019-02-17T13:08:19.484Z,10.00
2019-02-17T13:10:48.192Z,9.95
2019-02-17T13:13:16.902Z,10.87
2019-02-17T13:15:45.609Z,10.49
2019-02-17T13:18:17.389Z,10.40
2019-02-17T13:20:46.117Z,10.61
2019-02-17T13:23:16.235Z,10.58
2019-02-17T13:25:46.373Z,10.75
2019-02-17T13:28:18.038Z,10.69
2019-02-17T13:30:47.013Z,10.85
2019-02-17T13:33:15.850Z,11.07
2019-02-17T13:35:44.590Z,10.53
2019-02-17T13:38:13.269Z,10.52
2019-02-17T13:40:41.874Z,10.34
2019-02-17T13:43:10.562Z,10.88
2019-02-17T13:45:39.195Z,11.14
2019-02-17T13:48:10.929Z,10.38
2019-02-17T13:50:39.624Z,10.03
2019-02-17T13:53:12.180Z,10.04
2019-02-17T13:55:41.015Z,10.36
2019-02-17T13:58:09.731Z,10.17
2019-02-17T14:00:39.921Z,10.21
2019-02-17T14:03:08.742Z,10.35
2019-02-17T14:05:37.380Z,10.50
2019-02-17T14:08:06.064Z,10.22
2019-02-17T14:10:34.677Z,10.07
2019-02-17T14:13:05.393Z,10.22
2019-02-17T14:15:33.803Z,10.10
2019-02-17T14:18:02.443Z,10.05
2019-02-17T14:20:31.184Z,9.75
2019-02-17T14:22:59.795Z,9.82
2019-02-17T14:25:28.413Z,9.82
2019-02-17T14:27:57.092Z,9.80
2019-02-17T14:30:25.717Z,9.78
2019-02-17T14:32:54.388Z,9.96
2019-02-17T14:35:22.996Z,9.71
2019-02-17T14:37:51.699Z,9.56
2019-02-17T14:40:20.356Z,8.88
2019-02-17T14:42:49.151Z,8.50
2019-02-17T14:45:18.156Z,8.10
2019-02-17T14:47:46.750Z,8.57
2019-02-17T14:50:15.453Z,8.21
2019-02-17T14:52:44.156Z,7.87
2019-02-17T14:55:13.279Z,8.06
2019-02-17T14:57:41.995Z,7.85
2019-02-17T15:00:13.214Z,7.76
2019-02-17T15:02:42.012Z,7.42
2019-02-17T15:05:11.032Z,7.15
2019-02-17T15:07:39.978Z,7.00
2019-02-17T15:10:15.855Z,6.74
2019-02-17T15:12:44.534Z,6.76
2019-02-17T15:15:16.779Z,6.63
2019-02-17T15:17:46.579Z,6.54
2019-02-17T15:20:18.046Z,6.06
2019-02-17T15:22:46.655Z,5.94
2019-02-17T15:25:15.472Z,5.88
2019-02-17T15:27:44.994Z,5.48
2019-02-17T15:30:19.307Z,5.32
2019-02-17T15:32:48.130Z,5.08
2019-02-17T15:35:18.575Z,5.05
2019-02-17T15:37:47.301Z,5.09
2019-02-17T15:40:16.410Z,4.84
2019-02-17T15:42:45.161Z,4.78
2019-02-17T15:45:14.487Z,4.72
2019-02-17T15:47:43.202Z,4.62
2019-02-17T15:50:13.080Z,4.83
2019-02-17T15:52:41.911Z,4.28
2019-02-17T15:55:18.527Z,4.41
2019-02-17T15:57:48.935Z,4.13
2019-02-17T16:00:18.843Z,4.12
2019-02-17T16:02:47.626Z,4.13
2019-02-17T16:05:16.419Z,4.21
2019-02-17T16:07:45.147Z,3.95
2019-02-17T16:10:15.565Z,3.87
2019-02-17T16:12:44.414Z,3.83
2019-02-17T16:15:22.936Z,3.78
2019-02-17T16:17:51.618Z,3.42
2019-02-17T16:20:21.846Z,3.44
2019-02-17T16:22:50.724Z,3.47
2019-02-17T16:25:19.389Z,3.37
2019-02-17T16:27:48.145Z,3.57
2019-02-17T16:30:21.660Z,3.25
2019-02-17T16:32:50.568Z,3.00
2019-02-17T16:35:19.332Z,2.93
2019-02-17T16:37:48.193Z,2.87
2019-02-17T16:40:18.137Z,2.80
2019-02-17T16:42:47.095Z,2.97
2019-02-17T16:45:16.054Z,2.85
2019-02-17T16:47:47.180Z,2.69
2019-02-17T16:50:24.150Z,2.55
2019-02-17T16:52:53.197Z,2.37
2019-02-17T16:55:24.029Z,2.20
2019-02-17T16:57:53.065Z,2.02
2019-02-17T17:00:23.424Z,2.16
2019-02-17T17:03:00.391Z,2.14
2019-02-17T17:05:28.730Z,2.00
2019-02-17T17:07:58.593Z,1.92
2019-02-17T17:10:27.377Z,1.93
2019-02-17T17:12:56.099Z,1.74
2019-02-17T17:15:24.852Z,1.83
2019-02-17T17:17:53.478Z,1.44
2019-02-17T17:20:24.230Z,1.57
2019-02-17T17:22:52.935Z,1.59
2019-02-17T17:25:21.661Z,1.47
2019-02-17T17:27:50.292Z,1.42
2019-02-17T17:30:19.842Z,1.39
2019-02-17T17:32:48.474Z,1.45
2019-02-17T17:35:17.129Z,1.64
2019-02-17T17:37:45.893Z,1.67
2019-02-17T17:40:16.023Z,1.40
2019-02-17T17:42:45.885Z,1.25
2019-02-17T17:45:19.637Z,1.20
2019-02-17T17:47:48.420Z,1.25
2019-02-17T17:50:17.353Z,1.19
2019-02-17T17:52:45.994Z,1.39
2019-02-17T17:55:15.018Z,1.12
2019-02-17T17:57:43.737Z,1.10
2019-02-17T18:00:28.091Z,1.21
2019-02-17T18:02:56.740Z,1.02
2019-02-17T18:05:25.499Z,0.98
2019-02-17T18:07:54.310Z,0.90
2019-02-17T18:10:23.124Z,0.97
2019-02-17T18:12:51.856Z,0.98
2019-02-17T18:15:21.145Z,0.92
2019-02-17T18:17:54.208Z,0.86
2019-02-17T18:20:20.533Z,0.83
2019-02-17T18:22:49.230Z,0.78
2019-02-17T18:25:17.852Z,0.77
2019-02-17T18:27:46.594Z,0.70
2019-02-17T18:30:19.339Z,0.69
2019-02-17T18:32:48.290Z,0.63
2019-02-17T18:35:20.367Z,0.58
2019-02-17T18:37:47.831Z,0.64
2019-02-17T18:40:18.470Z,0.48
2019-02-17T18:42:47.218Z,0.18
2019-02-17T18:45:16.629Z,0.33
2019-02-17T18:47:45.238Z,0.28
2019-02-17T18:50:19.068Z,0.33
2019-02-17T18:52:48.049Z,0.21
2019-02-17T18:55:16.964Z,0.09
2019-02-17T18:57:50.131Z,0.14
2019-02-17T19:00:19.028Z,0.11
2019-02-17T19:02:47.721Z,0.07
2019-02-17T19:05:16.497Z,-0.09
2019-02-17T19:07:45.175Z,0.03
2019-02-17T19:10:15.289Z,-0.01
2019-02-17T19:12:45.506Z,-0.11
2019-02-17T19:15:27.712Z,-0.14
2019-02-17T19:17:56.452Z,-0.17
2019-02-17T19:20:34.786Z,-0.58
2019-02-17T19:23:06.874Z,-0.44
2019-02-17T19:25:39.083Z,-0.36
2019-02-17T19:28:08.176Z,-0.24
2019-02-17T19:30:37.390Z,-0.28
2019-02-17T19:33:06.265Z,-0.40
2019-02-17T19:35:41.875Z,-0.64
2019-02-17T19:38:06.512Z,-0.47
2019-02-17T19:40:35.527Z,-0.45
2019-02-17T19:43:04.769Z,-0.48
2019-02-17T19:45:34.457Z,-0.43
2019-02-17T19:48:03.361Z,-0.42
2019-02-17T19:50:32.123Z,-0.51
2019-02-17T19:53:00.901Z,-0.49
2019-02-17T19:55:29.589Z,-0.56
2019-02-17T19:57:58.540Z,-0.51
2019-02-17T20:00:27.653Z,-0.64
2019-02-17T20:03:04.387Z,-0.59
2019-02-17T20:05:36.835Z,-0.66
2019-02-17T20:08:06.021Z,-0.76
2019-02-17T20:10:36.971Z,-0.94
2019-02-17T20:13:07.774Z,-0.83
2019-02-17T20:15:36.529Z,-0.81
2019-02-17T20:18:05.573Z,-0.89
2019-02-17T20:20:34.739Z,-0.92
2019-02-17T20:23:03.463Z,-0.89
2019-02-17T20:25:33.735Z,-0.78
2019-02-17T20:28:02.489Z,-0.79
2019-02-17T20:30:32.957Z,-1.05
2019-02-17T20:33:04.667Z,-1.01
2019-02-17T20:35:34.323Z,-0.87
2019-02-17T20:38:04.468Z,-1.03
2019-02-17T20:40:33.196Z,-1.05
2019-02-17T20:43:02.107Z,-1.08
2019-02-17T20:45:30.822Z,-1.00
2019-02-17T20:47:59.546Z,-1.05
2019-02-17T20:50:30.877Z,-1.08
2019-02-17T20:53:00.950Z,-1.15
2019-02-17T20:55:31.226Z,-1.20
2019-02-17T20:57:59.975Z,-1.19
2019-02-17T21:00:30.261Z,-1.26
2019-02-17T21:02:58.896Z,-1.32
2019-02-17T21:05:27.691Z,-1.27
2019-02-17T21:07:56.400Z,-1.31
2019-02-17T21:10:25.135Z,-1.39
2019-02-17T21:12:53.918Z,-1.59
2019-02-17T21:15:22.990Z,-1.49
2019-02-17T21:17:51.630Z,-1.49
2019-02-17T21:20:20.765Z,-1.42
2019-02-17T21:22:53.064Z,-1.55
2019-02-17T21:25:22.134Z,-1.52
2019-02-17T21:27:50.810Z,-1.64
2019-02-17T21:30:20.393Z,-1.58
2019-02-17T21:32:49.091Z,-1.56
2019-02-17T21:35:18.120Z,-1.66
2019-02-17T21:37:46.864Z,-1.76
2019-02-17T21:40:15.491Z,-1.92
2019-02-17T21:42:44.166Z,-1.86
2019-02-17T21:45:14.032Z,-1.84
2019-02-17T21:47:42.749Z,-1.81
2019-02-17T21:50:15.547Z,-1.82
2019-02-17T21:52:44.460Z,-1.96
2019-02-17T21:55:14.671Z,-2.03
2019-02-17T21:57:43.351Z,-1.96
2019-02-17T22:00:16.383Z,-1.95
2019-02-17T22:02:45.012Z,-2.08
2019-02-17T22:05:13.720Z,-2.08
2019-02-17T22:07:42.390Z,-2.10
2019-02-17T22:10:13.815Z,-2.14
2019-02-17T22:12:42.476Z,-2.17
2019-02-17T22:15:13.781Z,-2.32
2019-02-17T22:17:42.474Z,-2.31
2019-02-17T22:20:11.818Z,-2.30
2019-02-17T22:22:40.524Z,-2.49
2019-02-17T22:25:10.448Z,-2.38
2019-02-17T22:27:39.061Z,-2.39
2019-02-17T22:30:10.914Z,-2.29
2019-02-17T22:32:39.535Z,-2.23
2019-02-17T22:35:08.155Z,-2.22
2019-02-17T22:37:36.861Z,-2.29
2019-02-17T22:40:10.675Z,-2.18
2019-02-17T22:42:39.374Z,-2.19
2019-02-17T22:45:11.988Z,-2.34
2019-02-17T22:47:40.684Z,-2.51
2019-02-17T22:50:12.025Z,-2.56
2019-02-17T22:52:40.663Z,-2.48
2019-02-17T22:55:11.135Z,-2.41
2019-02-17T22:57:39.839Z,-2.50
2019-02-17T23:00:30.573Z,-2.59
2019-02-17T23:02:59.366Z,-2.57
2019-02-17T23:05:27.971Z,-2.66
2019-02-17T23:07:56.667Z,-2.66
2019-02-17T23:10:25.281Z,-2.69
2019-02-17T23:12:54.152Z,-3.08
2019-02-17T23:15:22.765Z,-2.83
2019-02-17T23:17:51.452Z,-2.93
2019-02-17T23:20:20.105Z,-2.78
2019-02-17T23:22:48.709Z,-2.78
2019-02-17T23:25:17.390Z,-2.86
2019-02-17T23:27:46.194Z,-2.92
2019-02-17T23:30:14.885Z,-3.01
2019-02-17T23:32:43.501Z,-3.00
2019-02-17T23:35:13.587Z,-3.15
2019-02-17T23:37:42.266Z,-3.00
2019-02-17T23:40:13.699Z,-3.08
2019-02-17T23:42:42.320Z,-3.24
2019-02-17T23:45:12.802Z,-3.28
2019-02-17T23:47:41.510Z,-3.20
2019-02-17T23:50:14.002Z,-3.61
2019-02-17T23:52:43.088Z,-3.41
2019-02-17T23:55:12.377Z,-3.31
2019-02-17T23:57:41.460Z,-3.35
